createdAt,value
2022-12-31T00:02:04.133Z,58.88
2022-12-31T00:04:45.072Z,61.58
2022-12-31T00:07:23.354Z,63.88
2022-12-31T00:10:00.767Z,69.13
2022-12-31T00:12:38.918Z,60.15
2022-12-31T00:15:27.728Z,60.92
2022-12-31T00:18:02.778Z,59.22
2022-12-31T00:20:43.435Z,59.25
2022-12-31T00:23:16.187Z,63.80
2022-12-31T00:25:56.842Z,60.47
2022-12-31T00:28:34.783Z,65.97
2022-12-31T00:31:21.860Z,63.28
2022-12-31T00:34:02.193Z,63.72
2022-12-31T00:36:46.288Z,58.92
2022-12-31T00:39:24.396Z,52.50
2022-12-31T00:42:03.933Z,55.38
2022-12-31T00:44:44.651Z,51.83
2022-12-31T00:47:26.532Z,53.58
2022-12-31T00:50:12.073Z,53.50
2022-12-31T00:52:43.792Z,55.20
2022-12-31T00:55:24.374Z,51.10
2022-12-31T00:58:00.772Z,55.92
2022-12-31T01:00:41.502Z,52.33
2022-12-31T01:03:26.507Z,50.45
2022-12-31T01:06:04.488Z,53.42
2022-12-31T01:08:53.320Z,48.92
2022-12-31T01:11:37.494Z,47.90
2022-12-31T01:14:18.810Z,46.35
2022-12-31T01:16:58.855Z,49.72
2022-12-31T01:19:36.635Z,43.72
2022-12-31T01:22:11.775Z,42.25
2022-12-31T01:24:49.226Z,44.40
2022-12-31T01:27:22.543Z,42.78
2022-12-31T01:30:00.111Z,42.92
2022-12-31T01:32:34.784Z,44.03
2022-12-31T01:35:13.329Z,42.22
2022-12-31T01:37:45.897Z,42.92
2022-12-31T01:40:30.405Z,43.65
2022-12-31T01:43:21.922Z,43.28
2022-12-31T01:45:57.835Z,44.08
2022-12-31T01:48:35.592Z,43.42
2022-12-31T01:51:24.378Z,41.22
2022-12-31T01:54:09.074Z,39.65
2022-12-31T01:56:53.899Z,39.00
2022-12-31T01:59:38.205Z,38.38
2022-12-31T02:02:19.975Z,37.97
2022-12-31T02:05:04.140Z,38.13
2022-12-31T02:07:46.501Z,38.38
2022-12-31T02:10:30.406Z,35.80
2022-12-31T02:16:01.730Z,35.60
2022-12-31T02:18:59.260Z,35.50
2022-12-31T02:21:50.112Z,34.35
2022-12-31T02:24:49.478Z,36.33
2022-12-31T02:28:07.402Z,34.55
2022-12-31T02:30:50.236Z,34.42
2022-12-31T02:33:37.836Z,37.95
2022-12-31T02:36:21.430Z,39.20
2022-12-31T02:39:01.898Z,38.35
2022-12-31T02:41:55.274Z,37.83
2022-12-31T02:44:43.742Z,41.30
2022-12-31T02:47:46.031Z,37.83
2022-12-31T02:50:55.741Z,40.28
2022-12-31T02:53:42.917Z,40.95
2022-12-31T02:56:42.438Z,36.72
2022-12-31T02:59:46.702Z,36.05
2022-12-31T03:02:24.745Z,37.88
2022-12-31T03:05:04.243Z,39.20
2022-12-31T03:07:46.046Z,39.05
2022-12-31T03:10:21.372Z,35.60
2022-12-31T03:13:07.823Z,42.30
2022-12-31T03:15:52.018Z,45.15
2022-12-31T03:18:51.259Z,38.83
2022-12-31T03:21:45.247Z,40.95
2022-12-31T03:24:46.742Z,39.17
2022-12-31T03:27:33.361Z,39.25
2022-12-31T03:30:17.714Z,38.35
2022-12-31T03:33:01.934Z,40.00
2022-12-31T03:35:40.239Z,37.97
2022-12-31T03:38:24.206Z,37.70
2022-12-31T03:41:06.675Z,40.85
2022-12-31T03:43:50.487Z,39.88
2022-12-31T03:46:25.244Z,38.65
2022-12-31T03:48:59.162Z,45.10
2022-12-31T03:51:39.324Z,41.58
2022-12-31T03:54:13.795Z,48.78
2022-12-31T03:56:56.716Z,43.85
2022-12-31T03:59:48.178Z,41.72
2022-12-31T04:02:29.472Z,42.40
2022-12-31T04:05:13.418Z,44.40
2022-12-31T04:07:55.845Z,41.72
2022-12-31T04:10:40.285Z,42.20
2022-12-31T04:13:15.401Z,42.92
2022-12-31T04:16:05.676Z,41.35
2022-12-31T04:18:46.652Z,39.85
2022-12-31T04:21:34.683Z,27.65
2022-12-31T04:24:14.420Z,38.05
2022-12-31T04:26:44.444Z,42.28
2022-12-31T04:29:22.462Z,41.80
2022-12-31T04:32:06.427Z,42.95
2022-12-31T04:34:51.349Z,41.25
2022-12-31T04:37:30.339Z,41.90
2022-12-31T04:40:08.128Z,42.65
2022-12-31T04:42:45.636Z,41.42
2022-12-31T04:45:24.051Z,43.05
2022-12-31T04:48:07.544Z,40.45
2022-12-31T04:50:54.522Z,43.10
2022-12-31T04:53:29.591Z,35.78
2022-12-31T04:56:13.004Z,39.15
2022-12-31T04:58:55.648Z,36.97
2022-12-31T05:01:34.435Z,34.97
2022-12-31T05:04:10.383Z,36.10
2022-12-31T05:06:53.019Z,40.67
2022-12-31T05:09:28.526Z,40.83
2022-12-31T05:12:03.141Z,37.03
2022-12-31T05:14:38.502Z,34.58
2022-12-31T05:17:23.640Z,33.80
2022-12-31T05:19:58.993Z,33.28
2022-12-31T05:22:39.575Z,33.50
2022-12-31T05:25:25.249Z,34.83
2022-12-31T05:28:00.203Z,34.70
2022-12-31T05:30:49.293Z,35.03
2022-12-31T05:33:25.124Z,35.75
2022-12-31T05:36:03.443Z,35.17
2022-12-31T05:38:46.650Z,36.78
2022-12-31T05:41:28.350Z,35.45
2022-12-31T05:44:09.383Z,40.15
2022-12-31T05:46:47.882Z,34.90
2022-12-31T05:49:19.389Z,34.03
2022-12-31T05:51:58.532Z,37.80
2022-12-31T05:54:36.844Z,37.00
2022-12-31T05:57:20.194Z,39.28
2022-12-31T06:00:03.813Z,34.47
2022-12-31T06:02:53.381Z,36.97
2022-12-31T06:05:28.607Z,41.08
2022-12-31T06:08:13.776Z,39.05
2022-12-31T06:10:51.371Z,43.22
2022-12-31T06:13:39.911Z,31.10
2022-12-31T06:16:14.710Z,37.03
2022-12-31T06:18:56.432Z,35.22
2022-12-31T06:21:37.362Z,35.97
2022-12-31T06:24:11.180Z,34.45
2022-12-31T06:26:49.362Z,38.47
2022-12-31T06:29:30.714Z,37.42
2022-12-31T06:32:06.225Z,37.17
2022-12-31T06:34:54.294Z,39.03
2022-12-31T06:37:28.681Z,38.40
2022-12-31T06:40:07.671Z,42.40
2022-12-31T06:42:45.521Z,44.83
2022-12-31T06:45:23.470Z,39.75
2022-12-31T06:48:01.039Z,37.97
2022-12-31T06:50:41.622Z,39.92
2022-12-31T06:56:09.586Z,34.78
2022-12-31T06:58:48.749Z,37.95
2022-12-31T07:01:36.219Z,35.72
2022-12-31T07:04:30.976Z,38.72
2022-12-31T07:07:26.495Z,35.22
2022-12-31T07:10:29.470Z,37.35
2022-12-31T07:13:26.705Z,42.78
2022-12-31T07:16:24.041Z,40.97
2022-12-31T07:19:21.014Z,38.45
2022-12-31T07:22:02.329Z,39.92
2022-12-31T07:24:48.942Z,40.00
2022-12-31T07:27:30.145Z,39.47
2022-12-31T07:30:17.193Z,41.63
2022-12-31T07:33:20.492Z,39.25
2022-12-31T07:36:19.810Z,38.50
2022-12-31T07:39:10.790Z,40.38
2022-12-31T07:41:45.829Z,39.60
2022-12-31T07:44:46.466Z,42.13
2022-12-31T07:47:31.186Z,47.28
2022-12-31T07:50:11.011Z,45.45
2022-12-31T07:52:46.802Z,43.88
2022-12-31T07:55:22.067Z,47.55
2022-12-31T07:58:24.924Z,48.97
2022-12-31T08:01:09.656Z,47.78
2022-12-31T08:04:03.330Z,47.15
2022-12-31T08:07:09.042Z,47.85
2022-12-31T08:09:58.352Z,45.97
2022-12-31T08:12:40.800Z,45.10
2022-12-31T08:15:31.143Z,42.80
2022-12-31T08:18:09.555Z,44.97
2022-12-31T08:21:35.065Z,44.70
2022-12-31T08:24:47.360Z,42.63
2022-12-31T08:27:32.229Z,42.10
2022-12-31T08:31:16.314Z,45.15
2022-12-31T08:34:17.295Z,43.17
2022-12-31T08:37:14.608Z,43.05
2022-12-31T08:58:50.125Z,42.47
2022-12-31T09:01:36.168Z,43.25
2022-12-31T09:04:20.142Z,41.30
2022-12-31T09:10:05.955Z,37.80
2022-12-31T09:12:46.328Z,37.42
2022-12-31T09:15:35.743Z,37.08
2022-12-31T09:18:11.817Z,37.05
2022-12-31T09:21:07.446Z,38.42
2022-12-31T09:23:44.487Z,27.90
2022-12-31T09:26:48.947Z,40.35
2022-12-31T09:29:46.946Z,50.53
2022-12-31T09:32:41.280Z,39.80
2022-12-31T09:35:31.676Z,37.33
2022-12-31T09:38:44.052Z,35.88
2022-12-31T09:41:49.909Z,37.60
2022-12-31T09:44:59.275Z,36.88
2022-12-31T09:48:05.350Z,33.65
2022-12-31T09:51:09.623Z,36.15
2022-12-31T09:54:16.444Z,40.58
2022-12-31T09:57:05.609Z,40.63
2022-12-31T09:59:51.809Z,43.78
2022-12-31T10:03:07.425Z,41.70
2022-12-31T10:06:08.131Z,40.53
2022-12-31T10:09:22.526Z,38.75
2022-12-31T10:12:26.998Z,39.40
2022-12-31T10:15:15.513Z,39.58
2022-12-31T10:18:04.129Z,39.15
2022-12-31T10:20:51.912Z,41.83
2022-12-31T10:23:35.049Z,42.05
2022-12-31T10:26:16.179Z,31.52
2022-12-31T10:29:00.627Z,40.70
2022-12-31T10:31:47.942Z,38.83
2022-12-31T10:34:23.232Z,41.40
2022-12-31T10:37:20.485Z,40.17
2022-12-31T10:40:24.105Z,36.85
2022-12-31T10:43:16.780Z,37.63
2022-12-31T10:46:20.913Z,40.65
2022-12-31T10:49:38.145Z,38.63
2022-12-31T10:52:25.566Z,37.42
2022-12-31T10:55:29.388Z,37.72
2022-12-31T10:58:36.845Z,38.13
2022-12-31T11:01:38.087Z,38.72
2022-12-31T11:04:29.313Z,37.97
2022-12-31T11:07:33.846Z,40.97
2022-12-31T11:14:06.185Z,37.42
2022-12-31T11:16:51.137Z,38.97
2022-12-31T11:19:38.067Z,41.28
2022-12-31T11:22:51.148Z,37.50
2022-12-31T11:25:42.099Z,40.08
2022-12-31T11:28:24.415Z,39.42
2022-12-31T11:31:25.249Z,39.88
2022-12-31T11:34:24.824Z,41.90
2022-12-31T11:38:02.483Z,40.33
2022-12-31T11:40:54.606Z,41.70
2022-12-31T11:43:40.033Z,42.53
2022-12-31T11:46:29.991Z,53.90
2022-12-31T11:49:17.401Z,47.42
2022-12-31T11:52:18.285Z,47.10
2022-12-31T11:54:54.466Z,43.80
2022-12-31T11:57:55.824Z,46.22
2022-12-31T12:00:42.125Z,44.42
2022-12-31T12:03:26.342Z,47.00
2022-12-31T12:06:06.125Z,44.10
2022-12-31T12:08:46.873Z,46.55
2022-12-31T12:11:42.958Z,46.67
2022-12-31T12:14:55.005Z,46.78
2022-12-31T12:17:47.859Z,48.13
2022-12-31T12:20:40.874Z,48.72
2022-12-31T12:23:34.861Z,50.47
2022-12-31T12:26:34.317Z,46.10
2022-12-31T12:29:33.034Z,51.63
2022-12-31T12:32:13.569Z,49.65
2022-12-31T12:34:50.050Z,50.13
2022-12-31T12:37:39.115Z,51.35
2022-12-31T12:40:24.054Z,51.97
2022-12-31T12:43:04.157Z,51.85
2022-12-31T12:46:20.645Z,48.92
2022-12-31T12:49:05.773Z,50.70
2022-12-31T12:52:12.898Z,50.97
2022-12-31T12:55:01.371Z,50.03
2022-12-31T12:57:57.639Z,54.00
2022-12-31T13:01:04.308Z,51.17
2022-12-31T13:04:34.095Z,50.45
2022-12-31T13:07:44.068Z,49.88
2022-12-31T13:10:58.721Z,48.63
2022-12-31T13:14:03.905Z,47.75
2022-12-31T13:17:04.300Z,45.83
2022-12-31T13:19:59.055Z,42.70
2022-12-31T13:22:46.896Z,41.40
2022-12-31T13:25:37.830Z,38.58
2022-12-31T13:28:21.146Z,37.27
2022-12-31T13:31:15.599Z,40.35
2022-12-31T13:33:58.311Z,41.70
2022-12-31T13:36:42.651Z,44.28
2022-12-31T13:39:43.964Z,40.55
2022-12-31T13:42:55.519Z,39.10
2022-12-31T13:45:56.687Z,39.30
2022-12-31T13:48:58.453Z,39.08
2022-12-31T13:52:06.762Z,38.38
2022-12-31T13:54:58.251Z,41.70
2022-12-31T13:58:06.145Z,44.15
2022-12-31T14:00:50.771Z,40.95
2022-12-31T14:03:33.973Z,41.45
2022-12-31T14:06:17.860Z,44.35
2022-12-31T14:09:06.270Z,42.38
2022-12-31T14:11:50.687Z,40.78
2022-12-31T14:14:57.854Z,41.90
2022-12-31T14:18:04.113Z,43.70
2022-12-31T14:20:51.465Z,42.80
2022-12-31T14:24:10.930Z,40.20
2022-12-31T14:27:09.365Z,40.65
2022-12-31T14:30:08.283Z,48.38
2022-12-31T14:33:06.255Z,46.97
2022-12-31T14:35:58.017Z,44.88
2022-12-31T14:39:15.544Z,45.00
2022-12-31T14:42:40.803Z,46.35
2022-12-31T14:46:00.310Z,46.08
2022-12-31T14:48:55.800Z,43.42
2022-12-31T14:51:47.147Z,45.00
2022-12-31T14:54:37.676Z,44.22
2022-12-31T14:58:01.720Z,44.53
2022-12-31T15:01:02.329Z,40.88
2022-12-31T15:03:46.179Z,43.95
2022-12-31T15:09:43.033Z,43.72
2022-12-31T15:12:53.462Z,44.63
2022-12-31T15:25:42.604Z,46.95
2022-12-31T15:28:41.022Z,45.35
2022-12-31T15:31:26.301Z,46.67
2022-12-31T15:34:23.747Z,45.60
2022-12-31T15:37:34.316Z,43.92
2022-12-31T15:40:29.219Z,47.58
2022-12-31T15:43:13.159Z,46.97
2022-12-31T15:45:58.368Z,47.53
2022-12-31T15:49:04.996Z,45.08
2022-12-31T15:51:51.896Z,52.38
2022-12-31T15:54:43.785Z,52.45
2022-12-31T15:57:32.693Z,53.08
2022-12-31T16:00:24.169Z,51.58
2022-12-31T16:03:28.168Z,50.90
2022-12-31T16:06:13.347Z,54.97
2022-12-31T16:09:02.810Z,59.80
2022-12-31T16:11:44.629Z,61.95
2022-12-31T16:14:39.154Z,67.50
2022-12-31T16:17:40.042Z,63.55
2022-12-31T16:20:31.566Z,87.40
2022-12-31T16:23:28.022Z,99.88
2022-12-31T16:26:06.695Z,94.80
2022-12-31T16:28:42.951Z,94.22
2022-12-31T16:31:24.358Z,84.10
2022-12-31T16:34:45.310Z,85.50
2022-12-31T16:37:33.629Z,82.57
2022-12-31T16:40:31.947Z,72.20
2022-12-31T16:43:24.599Z,76.03
2022-12-31T16:46:23.514Z,68.18
2022-12-31T16:49:19.584Z,67.40
2022-12-31T16:51:55.147Z,66.00
2022-12-31T16:54:39.808Z,68.00
2022-12-31T16:57:29.318Z,64.38
2022-12-31T17:00:10.360Z,67.78
2022-12-31T17:02:48.536Z,61.00
2022-12-31T17:05:28.907Z,64.75
2022-12-31T17:08:23.948Z,60.20
2022-12-31T17:11:08.893Z,58.05
2022-12-31T17:13:49.940Z,54.58
2022-12-31T17:16:31.075Z,61.13
2022-12-31T17:19:11.865Z,71.28
2022-12-31T17:21:58.967Z,74.38
2022-12-31T17:24:52.179Z,66.00
2022-12-31T17:27:41.365Z,67.53
2022-12-31T17:30:55.949Z,64.72
2022-12-31T17:33:42.912Z,71.00
2022-12-31T17:36:31.953Z,70.32
2022-12-31T17:39:26.535Z,72.50
2022-12-31T17:42:13.192Z,69.10
2022-12-31T17:45:08.288Z,71.30
2022-12-31T17:47:58.856Z,86.05
2022-12-31T17:50:54.666Z,87.47
2022-12-31T17:53:31.555Z,82.80
2022-12-31T17:56:15.360Z,81.13
2022-12-31T17:59:04.565Z,75.82
2022-12-31T18:01:50.269Z,88.03
2022-12-31T18:04:47.138Z,81.18
2022-12-31T18:07:24.653Z,79.72
2022-12-31T18:10:11.278Z,75.80
2022-12-31T18:13:04.919Z,79.88
2022-12-31T18:15:51.084Z,81.28
2022-12-31T18:18:40.159Z,92.00
2022-12-31T18:21:38.486Z,95.18
2022-12-31T18:24:25.993Z,92.47
2022-12-31T18:27:03.876Z,100.53
2022-12-31T18:30:05.160Z,88.90
2022-12-31T18:32:57.936Z,71.15
2022-12-31T18:36:09.268Z,68.00
2022-12-31T18:39:00.162Z,63.80
2022-12-31T18:42:07.459Z,66.60
2022-12-31T18:45:07.054Z,63.08
2022-12-31T18:48:02.042Z,62.50
2022-12-31T18:50:43.273Z,61.80
2022-12-31T18:53:37.955Z,59.95
2022-12-31T18:56:21.964Z,56.63
2022-12-31T18:59:09.058Z,58.15
2022-12-31T19:01:55.301Z,57.38
2022-12-31T19:07:16.383Z,50.28
2022-12-31T19:12:40.703Z,52.70
2022-12-31T19:15:32.585Z,59.55
2022-12-31T19:18:18.751Z,59.88
2022-12-31T19:21:17.926Z,61.78
2022-12-31T19:24:12.578Z,64.85
2022-12-31T19:26:49.297Z,61.33
2022-12-31T19:29:51.143Z,58.92
2022-12-31T19:32:31.748Z,58.53
2022-12-31T19:35:12.877Z,59.45
2022-12-31T19:37:50.310Z,60.13
2022-12-31T19:40:33.755Z,59.92
2022-12-31T19:43:15.819Z,66.20
2022-12-31T19:46:24.551Z,74.13
2022-12-31T19:49:10.974Z,66.75
2022-12-31T19:51:48.586Z,73.43
2022-12-31T19:54:30.444Z,65.90
2022-12-31T19:57:07.761Z,59.55
2022-12-31T19:59:51.840Z,63.05
2022-12-31T20:02:40.366Z,65.70
2022-12-31T20:05:26.325Z,60.45
2022-12-31T20:08:12.862Z,70.32
2022-12-31T20:10:53.349Z,65.03
2022-12-31T20:13:39.590Z,64.57
2022-12-31T20:16:27.000Z,63.13
2022-12-31T20:19:10.813Z,63.15
2022-12-31T20:21:50.320Z,67.38
2022-12-31T20:24:32.520Z,69.93
2022-12-31T20:27:23.885Z,72.82
2022-12-31T20:30:06.977Z,77.65
2022-12-31T20:32:52.841Z,75.20
2022-12-31T20:35:37.478Z,88.53
2022-12-31T20:38:14.330Z,84.85
2022-12-31T20:40:55.130Z,86.50
2022-12-31T20:43:35.594Z,88.65
2022-12-31T20:46:32.007Z,75.30
2022-12-31T20:49:09.027Z,70.78
2022-12-31T20:51:52.412Z,68.35
2022-12-31T20:54:38.365Z,65.28
2022-12-31T20:57:14.609Z,66.38
2022-12-31T21:00:01.663Z,60.97
2022-12-31T21:02:43.265Z,63.50
2022-12-31T21:05:22.314Z,56.97
2022-12-31T21:08:06.484Z,62.40
2022-12-31T21:10:47.793Z,63.67
2022-12-31T21:13:31.495Z,64.15
2022-12-31T21:16:18.553Z,70.78
2022-12-31T21:18:53.594Z,66.85
2022-12-31T21:21:34.685Z,66.20
2022-12-31T21:24:23.640Z,67.57
2022-12-31T21:27:06.076Z,62.78
2022-12-31T21:30:16.815Z,61.17
2022-12-31T21:32:58.518Z,57.53
2022-12-31T21:35:45.826Z,56.92
2022-12-31T21:38:32.823Z,62.42
2022-12-31T21:41:33.313Z,59.30
2022-12-31T21:44:12.301Z,55.95
2022-12-31T21:47:45.650Z,55.42
2022-12-31T21:50:23.629Z,58.78
2022-12-31T21:53:06.930Z,55.60
2022-12-31T21:59:13.024Z,57.58
2022-12-31T22:02:09.415Z,56.42
2022-12-31T22:05:02.375Z,58.85
2022-12-31T22:08:02.951Z,60.97
2022-12-31T22:10:42.787Z,57.33
2022-12-31T22:13:36.112Z,57.40
2022-12-31T22:16:20.195Z,58.33
2022-12-31T22:19:07.280Z,66.00
2022-12-31T22:21:51.220Z,58.13
2022-12-31T22:24:32.348Z,54.80
2022-12-31T22:27:28.358Z,57.10
2022-12-31T22:30:20.871Z,56.10
2022-12-31T22:32:59.993Z,54.78
2022-12-31T22:35:40.309Z,58.45
2022-12-31T22:38:16.357Z,62.88
2022-12-31T22:41:03.419Z,75.15
2022-12-31T22:43:46.440Z,72.72
2022-12-31T22:46:22.413Z,76.47
2022-12-31T22:49:05.288Z,67.28
2022-12-31T22:51:56.736Z,76.32
2022-12-31T22:57:24.681Z,69.13
2022-12-31T23:00:00.699Z,70.10
2022-12-31T23:02:43.611Z,65.97
2022-12-31T23:05:34.243Z,65.65
2022-12-31T23:08:23.299Z,69.47
2022-12-31T23:11:09.779Z,72.93
2022-12-31T23:14:01.507Z,63.67
2022-12-31T23:16:58.315Z,64.95
2022-12-31T23:19:53.977Z,67.15
2022-12-31T23:22:44.271Z,79.28
2022-12-31T23:25:24.826Z,83.70
2022-12-31T23:28:09.249Z,82.68
2022-12-31T23:30:48.549Z,83.85
2022-12-31T23:33:29.446Z,81.20
2022-12-31T23:36:16.146Z,105.40
2022-12-31T23:38:48.265Z,94.28
2022-12-31T23:41:34.573Z,91.85
2022-12-31T23:44:12.042Z,93.13
2022-12-31T23:46:58.385Z,90.63
2022-12-31T23:49:33.767Z,90.85
2022-12-31T23:52:09.882Z,93.28
2022-12-31T23:54:50.816Z,116.20
2022-12-31T23:57:32.344Z,123.82
